Time;durP1;ratioP1;P1;durP2;ratioP2;P2;SDS_P1;SDS_P2;PMS_P1;PMS_P2;Temp;Humidity;BMP_temperature;BMP_pressure;BME280_temperature;BME280_humidity;BME280_pressure;Samples;Min_cycle;Max_cycle;Signal;HPM_P1;HPM_P2
2022/10/23 00:01:31;;;;;;;32.00;11.38;;;10.00;99.90;;;;;;5123543;27;20056;-76
2022/10/23 00:04:10;;;;;;;32.70;13.05;;;10.00;99.90;;;;;;5109142;27;20046;-78
2022/10/23 00:06:35;;;;;;;30.90;11.90;;;10.10;99.90;;;;;;5127100;27;20062;-79
2022/10/23 00:09:03;;;;;;;26.08;10.50;;;10.00;99.90;;;;;;5122693;27;20412;-78
2022/10/23 00:11:30;;;;;;;24.27;10.18;;;10.00;99.90;;;;;;5101663;27;20039;-76
2022/10/23 00:13:59;;;;;;;27.83;10.57;;;10.00;99.90;;;;;;5092283;27;20047;-76
2022/10/23 00:16:25;;;;;;;32.20;11.65;;;10.10;99.90;;;;;;5132600;27;20328;-78
2022/10/23 00:18:51;;;;;;;24.95;10.25;;;10.00;99.90;;;;;;5144938;27;20043;-79
2022/10/23 00:21:17;;;;;;;23.50;10.77;;;10.00;99.90;;;;;;5134277;27;20492;-77
2022/10/23 00:23:44;;;;;;;31.17;12.10;;;10.00;99.90;;;;;;5131790;27;20844;-80
2022/10/23 00:26:14;;;;;;;28.75;12.07;;;9.90;99.90;;;;;;5127583;27;20035;-80
2022/10/23 00:28:43;;;;;;;38.40;12.23;;;10.00;99.90;;;;;;5106625;27;20023;-78
2022/10/23 00:31:10;;;;;;;38.50;13.68;;;10.10;99.90;;;;;;5111176;27;20030;-81
2022/10/23 00:33:36;;;;;;;35.22;12.80;;;9.90;99.90;;;;;;5126693;27;20038;-77
2022/10/23 00:36:06;;;;;;;33.40;11.75;;;10.20;99.90;;;;;;5130505;27;20038;-77
2022/10/23 00:38:33;;;;;;;28.10;11.35;;;10.00;99.90;;;;;;5123735;27;20034;-79
2022/10/23 00:40:59;;;;;;;27.17;10.98;;;10.00;99.90;;;;;;5112028;27;20359;-78
2022/10/23 00:43:27;;;;;;;27.50;11.45;;;10.10;99.90;;;;;;5111473;27;20049;-76
2022/10/23 00:45:53;;;;;;;29.65;11.65;;;10.00;99.90;;;;;;5132136;27;20477;-77
2022/10/23 00:48:19;;;;;;;34.92;11.85;;;10.00;99.90;;;;;;5131328;27;20038;-77
2022/10/23 00:50:48;;;;;;;29.77;12.25;;;9.90;99.90;;;;;;5143637;27;20051;-78
2022/10/23 00:53:15;;;;;;;33.63;11.93;;;10.10;99.90;;;;;;5124671;27;20043;-80
2022/10/23 00:55:45;;;;;;;32.15;12.68;;;10.10;99.90;;;;;;5089964;27;20049;-77
2022/10/23 00:58:15;;;;;;;37.45;13.90;;;9.90;99.90;;;;;;5126246;27;20039;-79
2022/10/23 01:00:45;;;;;;;36.42;14.13;;;10.00;99.90;;;;;;5097293;27;20402;-79
2022/10/23 01:03:13;;;;;;;33.65;14.60;;;10.10;99.90;;;;;;5090389;27;20139;-79
2022/10/23 01:05:59;;;;;;;38.17;14.32;;;10.20;99.90;;;;;;5090834;27;20374;-79
2022/10/23 01:08:31;;;;;;;38.95;15.25;;;10.10;99.90;;;;;;5125179;27;20445;-80
2022/10/23 01:11:28;;;;;;;39.70;15.18;;;10.10;99.90;;;;;;5130288;27;20042;-77
2022/10/23 01:14:05;;;;;;;41.78;16.92;;;10.10;99.90;;;;;;5029596;28;20115;-79
2022/10/23 01:16:47;;;;;;;34.90;16.05;;;10.30;99.90;;;;;;5028254;28;20044;-78
2022/10/23 01:19:43;;;;;;;33.40;16.00;;;10.30;99.90;;;;;;5025331;28;20085;-78
2022/10/23 01:22:25;;;;;;;48.00;17.23;;;10.30;99.90;;;;;;5026583;28;20033;-80
2022/10/23 01:25:02;;;;;;;46.08;17.70;;;10.10;99.90;;;;;;5044774;28;20797;-78
2022/10/23 01:27:36;;;;;;;44.67;17.73;;;10.10;99.90;;;;;;5022361;28;20057;-75
2022/10/23 01:30:05;;;;;;;36.33;16.52;;;10.20;99.90;;;;;;5025963;28;20554;-77
2022/10/23 01:32:57;;;;;;;44.28;18.92;;;10.10;99.90;;;;;;5020260;28;20052;-78
2022/10/23 01:35:31;;;;;;;34.53;17.52;;;10.20;99.90;;;;;;5026607;28;20520;-76
2022/10/23 01:38:10;;;;;;;40.38;19.60;;;10.20;99.90;;;;;;5024565;28;20211;-76
2022/10/23 01:41:02;;;;;;;36.42;18.30;;;10.10;99.90;;;;;;5027253;28;20379;-77
2022/10/23 01:43:35;;;;;;;38.05;18.20;;;10.20;99.90;;;;;;5018045;28;20056;-78
2022/10/23 01:46:06;;;;;;;43.22;19.17;;;10.10;99.90;;;;;;5025191;28;20120;-78
2022/10/23 01:48:34;;;;;;;50.45;20.67;;;10.10;99.90;;;;;;5017557;28;20470;-78
2022/10/23 01:51:04;;;;;;;35.58;18.48;;;10.20;99.90;;;;;;5071358;28;20051;-77
2022/10/23 01:53:37;;;;;;;42.75;19.13;;;10.10;99.90;;;;;;5104887;28;20051;-77
2022/10/23 01:56:09;;;;;;;37.03;17.98;;;10.10;99.90;;;;;;5104372;28;20054;-79
2022/10/23 01:58:36;;;;;;;31.15;16.92;;;10.10;99.90;;;;;;5109273;28;20032;-79
2022/10/23 02:01:05;;;;;;;34.42;18.08;;;9.90;99.90;;;;;;5104544;28;20035;-80
2022/10/23 02:03:32;;;;;;;37.92;18.00;;;10.10;99.90;;;;;;5101722;28;20130;-80
2022/10/23 02:05:58;;;;;;;36.90;17.48;;;10.00;99.90;;;;;;5085404;28;20471;-78
2022/10/23 02:08:24;;;;;;;39.85;18.45;;;10.00;99.90;;;;;;5099203;28;20114;-78
2022/10/23 02:11:03;;;;;;;39.72;19.08;;;10.00;99.90;;;;;;5087543;28;20051;-78
2022/10/23 02:13:51;;;;;;;30.73;18.45;;;10.00;99.90;;;;;;5107162;28;20071;-77
2022/10/23 02:16:41;;;;;;;39.75;17.88;;;10.00;99.90;;;;;;5087066;28;20044;-79
2022/10/23 02:19:21;;;;;;;32.70;16.08;;;9.90;99.90;;;;;;5095416;27;20569;-78
2022/10/23 02:22:08;;;;;;;40.88;19.08;;;9.90;99.90;;;;;;5087399;27;20119;-76
2022/10/23 02:24:57;;;;;;;32.80;17.40;;;10.00;99.90;;;;;;5111192;27;20359;-79
2022/10/23 02:27:40;;;;;;;32.33;17.33;;;9.90;99.90;;;;;;5089599;28;20063;-77
2022/10/23 02:30:09;;;;;;;40.20;18.27;;;9.80;99.90;;;;;;5094700;27;20328;-76
2022/10/23 02:32:37;;;;;;;40.97;18.42;;;9.90;99.90;;;;;;5107711;27;20031;-79
2022/10/23 02:35:06;;;;;;;33.47;16.40;;;9.80;99.90;;;;;;5092929;28;20059;-79
2022/10/23 02:37:32;;;;;;;45.15;21.73;;;9.90;99.90;;;;;;5094754;28;20071;-77
2022/10/23 02:39:57;;;;;;;36.60;18.80;;;9.90;99.90;;;;;;5109688;28;20048;-80
2022/10/23 02:42:37;;;;;;;37.42;19.10;;;9.90;99.90;;;;;;5089062;28;20392;-77
2022/10/23 02:45:40;;;;;;;43.00;19.13;;;9.90;99.90;;;;;;5109129;27;20046;-76
2022/10/23 02:48:29;;;;;;;38.47;17.73;;;9.90;99.90;;;;;;5070213;28;20051;-77
2022/10/23 02:51:21;;;;;;;36.13;18.55;;;9.80;99.90;;;;;;5065572;28;20051;-79
2022/10/23 02:54:13;;;;;;;30.88;17.77;;;9.90;99.90;;;;;;5084275;28;20139;-80
2022/10/23 02:56:41;;;;;;;35.78;18.55;;;9.80;99.90;;;;;;5057655;28;20052;-82
2022/10/23 02:59:27;;;;;;;29.92;17.50;;;9.90;99.90;;;;;;5073147;28;20042;-83
2022/10/23 03:02:05;;;;;;;41.55;19.52;;;9.80;99.90;;;;;;5058256;28;20071;-77
2022/10/23 03:04:32;;;;;;;50.47;20.23;;;10.00;99.90;;;;;;5072623;28;20040;-79
2022/10/23 03:06:58;;;;;;;33.75;17.80;;;10.00;99.90;;;;;;5073318;28;20498;-78
2022/10/23 03:09:25;;;;;;;34.55;17.80;;;9.90;99.90;;;;;;5057135;28;20056;-77
2022/10/23 03:11:51;;;;;;;34.03;16.58;;;9.80;99.90;;;;;;5068270;28;20036;-77
2022/10/23 03:14:17;;;;;;;32.15;16.58;;;9.70;99.90;;;;;;5056912;28;20605;-80
2022/10/23 03:16:44;;;;;;;27.17;15.73;;;9.70;99.90;;;;;;5055742;28;20044;-78
2022/10/23 03:19:10;;;;;;;27.00;16.20;;;9.80;99.90;;;;;;5088792;28;20138;-79
2022/10/23 03:21:36;;;;;;;25.55;15.20;;;9.70;99.90;;;;;;5110317;28;20083;-77
2022/10/23 03:24:02;;;;;;;36.67;16.35;;;9.80;99.90;;;;;;5100758;28;20191;-78
2022/10/23 03:26:27;;;;;;;32.05;18.25;;;9.90;99.90;;;;;;5104469;28;20044;-78
2022/10/23 03:28:53;;;;;;;32.45;17.60;;;9.80;99.90;;;;;;5112228;28;20043;-78
2022/10/23 03:31:19;;;;;;;36.17;18.33;;;10.00;99.90;;;;;;5112258;28;20089;-79
2022/10/23 03:33:44;;;;;;;42.80;21.88;;;10.00;99.90;;;;;;5110525;28;20035;-78
2022/10/23 03:36:10;;;;;;;48.53;22.83;;;10.10;99.90;;;;;;5110871;28;20032;-77
2022/10/23 03:38:36;;;;;;;40.83;20.73;;;10.20;99.90;;;;;;5109378;28;20035;-75
2022/10/23 03:41:01;;;;;;;48.10;21.73;;;10.40;99.90;;;;;;5113338;28;20467;-79
2022/10/23 03:43:27;;;;;;;37.78;20.05;;;10.30;99.90;;;;;;5111328;28;20092;-76
2022/10/23 03:45:54;;;;;;;39.10;18.30;;;10.30;99.90;;;;;;5113299;28;20390;-79
2022/10/23 03:48:20;;;;;;;28.63;16.63;;;10.20;99.90;;;;;;5091935;28;20094;-79
2022/10/23 03:50:45;;;;;;;28.63;16.33;;;10.20;99.90;;;;;;5090810;28;20063;-76
2022/10/23 03:53:11;;;;;;;29.00;16.73;;;10.20;99.90;;;;;;5103297;28;20483;-79
2022/10/23 03:55:36;;;;;;;34.50;16.85;;;10.20;99.90;;;;;;5089267;28;20043;-78
2022/10/23 03:58:02;;;;;;;39.72;17.35;;;10.20;99.90;;;;;;5110998;28;20036;-78
2022/10/23 04:00:28;;;;;;;34.08;16.85;;;10.10;99.90;;;;;;5107205;27;20047;-77
2022/10/23 04:02:53;;;;;;;31.77;16.52;;;10.00;99.90;;;;;;5102578;27;20486;-79
2022/10/23 04:05:20;;;;;;;30.30;16.65;;;10.00;99.90;;;;;;5089317;27;20048;-81
2022/10/23 04:07:46;;;;;;;31.15;15.98;;;10.00;99.90;;;;;;5103742;27;20070;-77
2022/10/23 04:10:11;;;;;;;32.40;16.52;;;9.90;99.90;;;;;;5106920;27;20483;-78
2022/10/23 04:12:37;;;;;;;37.53;17.45;;;10.00;99.90;;;;;;5083350;27;20036;-77
2022/10/23 04:15:03;;;;;;;31.70;17.25;;;10.00;99.90;;;;;;5109742;27;20045;-79
2022/10/23 04:17:29;;;;;;;34.22;18.08;;;10.00;99.90;;;;;;5108629;27;20027;-79
2022/10/23 04:19:55;;;;;;;32.00;17.00;;;9.90;99.90;;;;;;5126156;27;20046;-77
2022/10/23 04:22:20;;;;;;;36.60;19.17;;;9.90;99.90;;;;;;5132283;27;20038;-78
2022/10/23 04:24:46;;;;;;;30.58;17.75;;;9.90;99.90;;;;;;5127203;27;20046;-78
2022/10/23 04:27:13;;;;;;;30.67;17.95;;;9.90;99.90;;;;;;5114829;27;20054;-79
2022/10/23 04:29:39;;;;;;;40.28;18.08;;;9.80;99.90;;;;;;5131017;27;20411;-77
2022/10/23 04:32:08;;;;;;;35.22;19.95;;;9.90;99.90;;;;;;5111208;27;20051;-78
2022/10/23 04:34:34;;;;;;;38.28;19.92;;;9.80;99.90;;;;;;5106154;27;20396;-76
2022/10/23 04:37:00;;;;;;;39.42;20.90;;;9.90;99.90;;;;;;5124614;27;20034;-77
2022/10/23 04:39:25;;;;;;;42.60;20.88;;;10.00;99.90;;;;;;5129244;27;20398;-77
2022/10/23 04:41:51;;;;;;;36.67;20.88;;;10.00;99.90;;;;;;5129428;27;20034;-79
2022/10/23 04:44:17;;;;;;;33.15;19.48;;;10.00;99.90;;;;;;5128313;27;20177;-79
2022/10/23 04:46:42;;;;;;;39.97;19.77;;;9.90;99.90;;;;;;5109797;27;20042;-76
2022/10/23 04:49:08;;;;;;;33.88;19.27;;;9.80;99.90;;;;;;5126375;27;20042;-79
2022/10/23 04:51:34;;;;;;;40.10;21.08;;;9.90;99.90;;;;;;5097913;27;20043;-76
2022/10/23 04:57:40;;;;;;;44.15;20.38;;;9.80;99.90;;;;;;5146549;27;20042;-76
2022/10/23 05:00:09;;;;;;;46.22;22.83;;;9.80;99.90;;;;;;5120170;27;20089;-80
2022/10/23 05:02:34;;;;;;;49.50;22.35;;;9.90;99.90;;;;;;5127563;27;20043;-78
2022/10/23 05:05:00;;;;;;;46.72;23.30;;;9.90;99.90;;;;;;5131732;27;20488;-78
2022/10/23 05:07:25;;;;;;;46.17;23.10;;;9.90;99.90;;;;;;5126741;27;20035;-78
2022/10/23 05:09:51;;;;;;;45.70;23.85;;;9.90;99.90;;;;;;5127092;27;20035;-80
2022/10/23 05:12:17;;;;;;;38.55;22.65;;;10.00;99.90;;;;;;5127426;27;20374;-76
2022/10/23 05:14:43;;;;;;;41.40;22.25;;;10.00;99.90;;;;;;5131209;27;20122;-80
2022/10/23 05:17:47;;;;;;;45.42;23.73;;;9.90;99.90;;;;;;5126676;27;20087;-76
2022/10/23 05:20:17;;;;;;;40.95;22.00;;;10.00;99.90;;;;;;5104260;27;20138;-80
2022/10/23 05:22:51;;;;;;;48.05;24.67;;;9.90;99.90;;;;;;5125630;27;20693;-78
2022/10/23 05:25:17;;;;;;;55.53;25.10;;;10.10;99.90;;;;;;5141257;27;20563;-78
2022/10/23 05:27:42;;;;;;;54.75;25.23;;;10.00;99.90;;;;;;5142651;27;20038;-77
2022/10/23 05:30:10;;;;;;;59.95;26.33;;;10.00;99.90;;;;;;5122358;27;20839;-78
2022/10/23 05:32:36;;;;;;;46.40;25.40;;;10.00;99.90;;;;;;5109584;27;20031;-79
2022/10/23 05:35:07;;;;;;;53.03;25.75;;;10.00;99.90;;;;;;5108981;27;20433;-78
2022/10/23 05:37:33;;;;;;;47.78;25.17;;;10.20;99.90;;;;;;5109159;27;20034;-79
2022/10/23 05:39:59;;;;;;;53.30;26.58;;;10.10;99.90;;;;;;5109067;27;20334;-78
2022/10/23 05:42:24;;;;;;;49.17;25.48;;;10.10;99.90;;;;;;5127316;27;20035;-81
2022/10/23 05:44:50;;;;;;;53.47;26.50;;;10.10;99.90;;;;;;5119381;27;20077;-79
2022/10/23 05:47:15;;;;;;;47.70;25.92;;;10.10;99.90;;;;;;5124450;27;20046;-77
2022/10/23 05:49:41;;;;;;;51.58;26.90;;;10.20;99.90;;;;;;5116048;27;20046;-78
2022/10/23 05:52:10;;;;;;;52.53;25.40;;;10.20;99.90;;;;;;5131829;27;20160;-79
2022/10/23 05:54:36;;;;;;;50.25;26.13;;;10.20;99.90;;;;;;5127122;27;20450;-79
2022/10/23 05:57:01;;;;;;;62.35;26.95;;;10.10;99.90;;;;;;5116646;27;20054;-79
2022/10/23 05:59:27;;;;;;;50.92;25.38;;;10.10;99.90;;;;;;5149179;27;20039;-80
2022/10/23 06:01:53;;;;;;;53.40;24.73;;;10.30;99.90;;;;;;5109824;27;20137;-78
2022/10/23 06:04:18;;;;;;;45.30;24.63;;;10.20;99.90;;;;;;5127330;27;20449;-77
2022/10/23 06:06:47;;;;;;;46.13;24.67;;;10.20;99.90;;;;;;5130234;27;20125;-77
2022/10/23 06:09:14;;;;;;;50.85;24.65;;;10.20;99.90;;;;;;5126447;27;20565;-77
2022/10/23 06:11:40;;;;;;;48.60;23.80;;;10.20;99.90;;;;;;5111930;27;20129;-79
2022/10/23 06:14:06;;;;;;;55.78;25.67;;;10.30;99.90;;;;;;5126289;27;20477;-80
2022/10/23 06:16:32;;;;;;;51.05;25.08;;;10.30;99.90;;;;;;5125729;27;20043;-76
2022/10/23 06:18:59;;;;;;;53.55;24.13;;;10.30;99.90;;;;;;5101094;28;20047;-81
2022/10/23 06:21:26;;;;;;;52.42;25.77;;;10.20;99.90;;;;;;5112515;27;20359;-78
2022/10/23 06:23:54;;;;;;;53.35;25.38;;;10.20;99.90;;;;;;5125409;27;20034;-77
2022/10/23 06:26:20;;;;;;;50.60;25.30;;;10.20;99.90;;;;;;5111405;27;20118;-76
2022/10/23 06:28:45;;;;;;;52.60;24.70;;;10.20;99.90;;;;;;5113786;27;20180;-77
2022/10/23 06:31:13;;;;;;;51.38;25.13;;;10.20;99.90;;;;;;5126720;27;20069;-81
2022/10/23 06:33:40;;;;;;;48.75;24.80;;;10.20;99.90;;;;;;5105861;28;20138;-80
2022/10/23 06:36:09;;;;;;;51.40;24.17;;;10.20;99.90;;;;;;5093395;27;20130;-79
2022/10/23 06:38:39;;;;;;;53.97;25.15;;;10.20;99.90;;;;;;5122347;27;20121;-77
2022/10/23 06:41:09;;;;;;;51.67;25.55;;;10.30;99.90;;;;;;5104522;28;20135;-79
2022/10/23 06:43:35;;;;;;;45.63;24.70;;;10.30;99.90;;;;;;5106018;28;20455;-78
2022/10/23 06:46:02;;;;;;;51.20;24.25;;;10.30;99.90;;;;;;5101927;28;20046;-77
2022/10/23 06:48:28;;;;;;;50.25;24.48;;;10.30;99.90;;;;;;5114902;27;20032;-79
2022/10/23 06:50:54;;;;;;;51.08;23.13;;;10.40;99.90;;;;;;5119102;27;20470;-78
2022/10/23 06:53:24;;;;;;;47.85;23.25;;;10.20;99.90;;;;;;5102553;28;20047;-77
2022/10/23 06:55:59;;;;;;;49.22;24.27;;;10.40;99.90;;;;;;5105679;28;20063;-79
2022/10/23 06:58:24;;;;;;;47.92;23.70;;;10.40;99.90;;;;;;5120601;27;20047;-81
2022/10/23 07:00:50;;;;;;;49.17;24.05;;;10.50;99.90;;;;;;5121284;27;20046;-78
2022/10/23 07:03:16;;;;;;;47.80;23.48;;;10.50;99.90;;;;;;5129297;27;20035;-79
2022/10/23 07:05:43;;;;;;;53.47;24.33;;;10.50;99.90;;;;;;5106619;27;20035;-78
2022/10/23 07:08:10;;;;;;;52.15;25.00;;;10.60;99.90;;;;;;5117019;27;20078;-78
2022/10/23 07:10:35;;;;;;;46.13;24.45;;;10.50;99.90;;;;;;5106697;28;20041;-82
2022/10/23 07:13:02;;;;;;;49.15;23.98;;;10.60;99.90;;;;;;5119521;27;20043;-78
2022/10/23 07:15:28;;;;;;;40.17;22.40;;;10.60;99.90;;;;;;5107858;28;20066;-77
2022/10/23 07:17:57;;;;;;;47.75;23.25;;;10.70;99.90;;;;;;5126177;27;20051;-79
2022/10/23 07:20:23;;;;;;;46.30;24.83;;;10.80;99.90;;;;;;5127801;27;20122;-76
2022/10/23 07:22:53;;;;;;;44.47;23.33;;;10.80;99.90;;;;;;5123072;27;20043;-78
2022/10/23 07:25:20;;;;;;;50.03;22.80;;;10.80;99.90;;;;;;5094424;28;20049;-81
2022/10/23 07:27:48;;;;;;;44.88;22.77;;;10.80;99.90;;;;;;5126896;28;20043;-81
2022/10/23 07:30:14;;;;;;;47.85;22.83;;;10.80;99.90;;;;;;5106245;27;20127;-77
2022/10/23 07:32:40;;;;;;;50.95;21.95;;;10.90;99.90;;;;;;5127044;27;20142;-79
2022/10/23 07:35:06;;;;;;;44.30;22.42;;;11.00;99.90;;;;;;5114083;27;20058;-79
2022/10/23 07:37:32;;;;;;;43.58;22.13;;;11.00;99.90;;;;;;5127570;27;20390;-76
2022/10/23 07:39:57;;;;;;;40.83;20.73;;;11.10;99.90;;;;;;5124762;27;20042;-80
2022/10/23 07:42:23;;;;;;;42.58;20.80;;;11.00;99.90;;;;;;5106228;27;20039;-80
2022/10/23 07:44:49;;;;;;;38.42;20.73;;;11.10;99.90;;;;;;5112226;27;20031;-78
2022/10/23 07:47:14;;;;;;;36.78;19.95;;;11.20;99.90;;;;;;5130186;27;20565;-80
2022/10/23 07:49:41;;;;;;;39.72;18.70;;;11.30;99.90;;;;;;5129428;27;20099;-76
2022/10/23 07:52:06;;;;;;;37.53;18.88;;;11.30;99.90;;;;;;5136731;27;20031;-79
2022/10/23 07:54:32;;;;;;;40.03;17.73;;;11.30;99.90;;;;;;5129175;27;20039;-79
2022/10/23 07:56:58;;;;;;;35.92;18.52;;;11.40;99.90;;;;;;5125455;27;20038;-77
2022/10/23 07:59:24;;;;;;;33.75;17.83;;;11.40;99.90;;;;;;5123467;27;20170;-81
2022/10/23 08:01:51;;;;;;;37.58;18.85;;;11.40;99.90;;;;;;5115936;27;20103;-79
2022/10/23 08:04:18;;;;;;;37.47;18.50;;;11.50;99.90;;;;;;5129455;27;20041;-78
2022/10/23 08:06:43;;;;;;;32.65;16.92;;;11.50;99.90;;;;;;5120555;27;20059;-78
2022/10/23 08:09:09;;;;;;;39.63;17.45;;;11.50;99.90;;;;;;5113237;27;20385;-80
2022/10/23 08:11:35;;;;;;;36.75;17.92;;;11.60;99.90;;;;;;5117854;27;20456;-80
2022/10/23 08:14:03;;;;;;;32.05;16.55;;;11.60;99.90;;;;;;5123565;27;20122;-79
2022/10/23 08:16:30;;;;;;;35.53;17.02;;;11.50;99.90;;;;;;5123688;27;20047;-78
2022/10/23 08:18:56;;;;;;;31.75;16.02;;;11.60;99.90;;;;;;5127749;27;20199;-81
2022/10/23 08:21:22;;;;;;;40.30;16.88;;;11.60;99.90;;;;;;5109753;27;20039;-79
2022/10/23 08:23:48;;;;;;;30.40;16.08;;;11.70;99.90;;;;;;5129173;27;20084;-78
2022/10/23 08:26:14;;;;;;;34.40;15.18;;;11.80;99.90;;;;;;5125782;27;20099;-78
2022/10/23 08:28:42;;;;;;;24.52;15.20;;;11.80;99.90;;;;;;5128347;27;20091;-77
2022/10/23 08:31:12;;;;;;;32.38;15.50;;;11.70;99.90;;;;;;5124602;27;20031;-81
2022/10/23 08:33:40;;;;;;;33.53;16.00;;;11.90;99.90;;;;;;5108550;27;20039;-81
2022/10/23 08:36:21;;;;;;;24.95;14.70;;;11.80;99.90;;;;;;5106714;27;20046;-80
2022/10/23 08:38:48;;;;;;;27.05;14.82;;;11.90;99.90;;;;;;5125954;27;20466;-79
2022/10/23 08:41:36;;;;;;;29.02;14.13;;;11.90;99.90;;;;;;5109359;27;20039;-80
2022/10/23 08:44:21;;;;;;;22.73;13.43;;;12.00;99.90;;;;;;5123459;27;20122;-80
2022/10/23 08:46:53;;;;;;;33.55;14.55;;;12.10;99.90;;;;;;5127741;27;20039;-79
2022/10/23 08:49:44;;;;;;;38.60;14.63;;;12.10;99.90;;;;;;5122866;27;20190;-80
2022/10/23 08:52:28;;;;;;;27.33;13.70;;;12.20;99.90;;;;;;5104679;27;20414;-79
2022/10/23 08:55:17;;;;;;;25.40;13.20;;;12.20;99.90;;;;;;5109836;27;20043;-83
2022/10/23 08:58:17;;;;;;;29.83;13.50;;;12.20;99.90;;;;;;5136673;27;20130;-83
2022/10/23 09:00:44;;;;;;;28.25;13.27;;;12.30;99.90;;;;;;5119757;27;20038;-83
2022/10/23 09:03:11;;;;;;;25.02;13.07;;;12.50;99.90;;;;;;5106839;27;20092;-80
2022/10/23 09:06:04;;;;;;;22.23;12.70;;;12.40;99.90;;;;;;5125812;27;20039;-78
2022/10/23 09:09:20;;;;;;;25.67;13.15;;;12.60;99.90;;;;;;5131636;27;20040;-78
2022/10/23 09:11:58;;;;;;;25.38;12.25;;;12.60;99.90;;;;;;5093160;28;20046;-80
2022/10/23 09:14:51;;;;;;;22.35;13.00;;;12.70;99.90;;;;;;5080038;28;20047;-79
2022/10/23 09:17:38;;;;;;;29.02;12.23;;;12.80;99.90;;;;;;5066825;28;20059;-76
2022/10/23 09:20:17;;;;;;;22.27;11.27;;;12.80;99.90;;;;;;5062921;28;20539;-78
2022/10/23 09:22:44;;;;;;;29.95;11.82;;;13.00;99.90;;;;;;5040965;28;20044;-79
2022/10/23 09:25:28;;;;;;;28.40;12.00;;;13.00;99.90;;;;;;5047504;28;20040;-79
2022/10/23 09:27:56;;;;;;;27.83;11.48;;;13.00;99.90;;;;;;5030268;28;20044;-80
2022/10/23 09:30:35;;;;;;;18.05;10.48;;;13.20;99.90;;;;;;5048170;28;20222;-80
2022/10/23 09:33:13;;;;;;;22.70;11.02;;;13.10;99.90;;;;;;5046912;28;20051;-80
2022/10/23 09:35:56;;;;;;;17.88;10.77;;;13.20;99.90;;;;;;5029455;28;20044;-83
2022/10/23 09:38:38;;;;;;;21.65;10.57;;;13.20;99.90;;;;;;5035194;28;20047;-79
2022/10/23 09:41:12;;;;;;;25.40;10.10;;;13.20;99.90;;;;;;5052131;28;20189;-79
2022/10/23 09:43:38;;;;;;;18.00;10.63;;;13.30;99.90;;;;;;5103593;28;20043;-79
2022/10/23 09:46:06;;;;;;;25.17;10.27;;;13.40;99.90;;;;;;5112292;27;20470;-83
2022/10/23 09:48:33;;;;;;;19.75;10.20;;;13.50;99.90;;;;;;5088216;27;20039;-78
2022/10/23 09:51:14;;;;;;;23.35;10.25;;;13.40;99.90;;;;;;5089897;28;20146;-77
2022/10/23 09:53:47;;;;;;;16.42;9.90;;;13.50;99.90;;;;;;5103920;28;20383;-80
2022/10/23 09:56:33;;;;;;;17.10;10.15;;;13.70;99.90;;;;;;5106822;27;20494;-79
2022/10/23 09:59:23;;;;;;;21.65;9.35;;;13.70;99.90;;;;;;5111132;27;20399;-80
2022/10/23 10:02:00;;;;;;;16.08;8.98;;;13.70;99.90;;;;;;5104630;27;20036;-76
2022/10/23 10:04:37;;;;;;;19.13;8.60;;;13.90;99.90;;;;;;5090279;28;20035;-79
2022/10/23 10:07:13;;;;;;;16.25;9.40;;;13.80;99.90;;;;;;5105977;28;20040;-80
2022/10/23 10:09:39;;;;;;;21.23;9.18;;;14.00;99.90;;;;;;5100265;28;20039;-79
2022/10/23 10:12:34;;;;;;;18.95;9.48;;;14.00;99.90;;;;;;5105391;28;20398;-81
2022/10/23 10:15:28;;;;;;;16.02;7.82;;;13.90;99.90;;;;;;5081498;28;20036;-81
2022/10/23 10:17:57;;;;;;;23.67;7.93;;;14.20;99.90;;;;;;5077209;27;20047;-82
2022/10/23 10:20:41;;;;;;;17.10;7.85;;;14.20;99.90;;;;;;5109044;28;21721;-79
2022/10/23 10:23:26;;;;;;;15.48;7.63;;;14.20;99.90;;;;;;5109987;28;20390;-76
2022/10/23 10:26:25;;;;;;;19.45;8.00;;;14.40;99.90;;;;;;5095624;27;20498;-79
2022/10/23 10:29:32;;;;;;;22.25;8.20;;;14.50;99.90;;;;;;5109058;27;20038;-82
2022/10/23 10:32:23;;;;;;;13.65;7.30;;;14.50;99.90;;;;;;5097573;27;20031;-80
2022/10/23 10:34:58;;;;;;;11.93;7.35;;;14.50;99.90;;;;;;5110992;27;20047;-77
2022/10/23 10:37:44;;;;;;;20.17;7.15;;;14.60;99.90;;;;;;5114339;27;20055;-77
2022/10/23 10:40:28;;;;;;;16.50;6.70;;;14.70;99.90;;;;;;5115003;28;20047;-77
2022/10/23 10:43:00;;;;;;;16.85;7.20;;;14.60;99.90;;;;;;5113017;28;20076;-79
2022/10/23 10:45:37;;;;;;;13.70;7.00;;;14.70;99.90;;;;;;5113005;28;20042;-81
2022/10/23 10:48:22;;;;;;;14.80;6.85;;;14.80;99.90;;;;;;5108209;28;20039;-80
2022/10/23 10:50:53;;;;;;;;;;;14.90;99.90;;;;;;5131753;28;20054;-78
2022/10/23 10:53:27;;;;;;;12.93;6.90;;;14.90;99.90;;;;;;5101943;28;19915;-82
2022/10/23 10:55:55;;;;;;;20.92;6.90;;;14.90;99.90;;;;;;5127344;28;20467;-80
2022/10/23 10:58:47;;;;;;;12.75;6.40;;;15.00;99.90;;;;;;5122400;28;20413;-78
2022/10/23 11:01:25;;;;;;;12.30;6.68;;;15.10;99.90;;;;;;5104528;28;20081;-79
2022/10/23 11:04:08;;;;;;;18.40;6.78;;;15.20;99.90;;;;;;5103095;28;20055;-79
2022/10/23 11:06:36;;;;;;;16.13;6.22;;;15.20;99.90;;;;;;5103750;27;20382;-77
2022/10/23 11:09:15;;;;;;;16.40;6.50;;;15.30;99.90;;;;;;5085940;27;20047;-80
2022/10/23 11:11:42;;;;;;;14.27;6.43;;;15.20;99.90;;;;;;5110126;27;20111;-77
2022/10/23 11:14:22;;;;;;;16.45;6.68;;;15.20;99.90;;;;;;5088032;27;20058;-76
2022/10/23 11:17:20;;;;;;;16.20;6.10;;;15.40;99.90;;;;;;5087820;27;20482;-80
2022/10/23 11:20:17;;;;;;;19.33;6.03;;;15.30;99.90;;;;;;5101852;28;20052;-79
2022/10/23 11:23:03;;;;;;;11.85;6.07;;;15.40;99.90;;;;;;5005292;28;20134;-78
2022/10/23 11:25:55;;;;;;;14.80;5.88;;;15.50;99.90;;;;;;5006243;28;20393;-79
2022/10/23 11:28:36;;;;;;;14.45;5.68;;;15.50;99.90;;;;;;4988846;28;20157;-80
2022/10/23 11:31:16;;;;;;;14.80;5.57;;;15.70;99.90;;;;;;4991027;28;20038;-81
2022/10/23 11:34:24;;;;;;;16.42;5.70;;;15.70;99.90;;;;;;4989040;28;20057;-79
2022/10/23 11:36:53;;;;;;;12.10;5.50;;;15.60;99.90;;;;;;4962040;28;20447;-83
2022/10/23 11:39:28;;;;;;;19.10;6.07;;;15.70;99.90;;;;;;4936456;28;20466;-77
2022/10/23 11:42:14;;;;;;;;;;;15.80;99.90;;;;;;4980359;28;20078;-82
2022/10/23 11:44:45;;;;;;;11.75;5.70;;;15.60;99.90;;;;;;4971793;28;20235;-81
2022/10/23 11:47:32;;;;;;;16.13;5.90;;;15.60;99.90;;;;;;4967142;28;20062;-77
2022/10/23 11:50:07;;;;;;;15.65;5.57;;;15.70;99.90;;;;;;4965305;28;20043;-80
2022/10/23 11:52:51;;;;;;;13.75;5.60;;;15.60;99.90;;;;;;4947571;28;20055;-80
2022/10/23 11:55:23;;;;;;;13.05;5.07;;;15.60;99.90;;;;;;4968694;28;20505;-79
2022/10/23 11:58:03;;;;;;;11.43;5.03;;;15.60;99.90;;;;;;4964396;28;20051;-77
2022/10/23 12:00:32;;;;;;;12.50;5.05;;;15.80;99.90;;;;;;5032966;28;20046;-78
2022/10/23 12:02:59;;;;;;;9.65;4.75;;;15.60;99.90;;;;;;5020835;28;20052;-79
2022/10/23 12:05:36;;;;;;;12.77;4.53;;;15.70;99.90;;;;;;5021251;28;20065;-80
2022/10/23 12:08:06;;;;;;;14.20;4.72;;;15.70;99.90;;;;;;5016961;28;20428;-81
2022/10/23 12:10:42;;;;;;;13.77;4.78;;;15.60;99.90;;;;;;5001494;28;20432;-81
2022/10/23 12:13:37;;;;;;;13.38;4.95;;;15.60;99.90;;;;;;5045001;28;20123;-78
2022/10/23 12:16:06;;;;;;;10.32;5.03;;;15.70;99.90;;;;;;5082567;28;20124;-80
2022/10/23 12:18:43;;;;;;;11.55;4.93;;;15.50;99.90;;;;;;5079674;28;20047;-78
2022/10/23 12:21:17;;;;;;;17.75;5.28;;;15.60;99.90;;;;;;5085630;28;20118;-78
2022/10/23 12:24:30;;;;;;;11.73;5.40;;;15.60;99.90;;;;;;5048779;27;21286;-80
2022/10/23 12:27:30;;;;;;;19.95;5.43;;;15.50;99.90;;;;;;5069370;28;20070;-80
2022/10/23 12:30:08;;;;;;;13.95;5.40;;;15.60;99.90;;;;;;5084801;28;20045;-80
2022/10/23 12:32:46;;;;;;;9.50;4.75;;;15.50;99.90;;;;;;5083890;28;20047;-80
2022/10/23 12:35:59;;;;;;;15.73;5.03;;;15.60;99.90;;;;;;5071513;28;20077;-78
2022/10/23 12:38:28;;;;;;;16.00;4.85;;;15.60;99.90;;;;;;5084078;27;20344;-80
2022/10/23 12:41:20;;;;;;;11.05;4.85;;;15.60;99.90;;;;;;5052155;28;20634;-76
2022/10/23 12:43:53;;;;;;;16.10;5.30;;;15.70;99.90;;;;;;5070822;28;20039;-78
2022/10/23 12:46:30;;;;;;;14.50;5.07;;;15.60;99.90;;;;;;5106649;28;20482;-76
2022/10/23 12:48:57;;;;;;;13.55;4.97;;;15.60;99.90;;;;;;5089126;27;20134;-78
2022/10/23 12:51:28;;;;;;;13.13;4.85;;;15.70;99.90;;;;;;5070941;28;20142;-81
2022/10/23 12:53:54;;;;;;;10.48;4.80;;;15.70;99.90;;;;;;5098267;28;20046;-79
2022/10/23 12:56:20;;;;;;;13.43;4.72;;;15.80;99.90;;;;;;5082508;28;20059;-78
2022/10/23 12:58:59;;;;;;;12.57;4.50;;;15.90;99.90;;;;;;5075993;28;20046;-79
2022/10/23 13:01:32;;;;;;;13.45;4.57;;;15.90;99.90;;;;;;5078739;28;20058;-76
2022/10/23 13:04:04;;;;;;;13.57;4.45;;;15.80;99.90;;;;;;5077812;28;20078;-78